createdAt,value
2019-03-15T00:00:56.496Z,94573.24
2019-03-15T00:03:22.762Z,94571.93
2019-03-15T00:05:49.974Z,94579.93
2019-03-15T00:08:16.142Z,94585.48
2019-03-15T00:10:42.337Z,94601.02
2019-03-15T00:13:08.459Z,94596.94
2019-03-15T00:15:34.797Z,94601.33
2019-03-15T00:18:01.196Z,94597.92
2019-03-15T00:20:28.520Z,94600.03
2019-03-15T00:22:54.693Z,94612.77
2019-03-15T00:25:20.912Z,94593.34
2019-03-15T00:27:47.111Z,94604.94
2019-03-15T00:30:13.631Z,94611.80
2019-03-15T00:32:39.785Z,94617.85
2019-03-15T00:35:07.179Z,94625.53
2019-03-15T00:37:33.721Z,94638.09
2019-03-15T00:40:00.657Z,94646.93
2019-03-15T00:42:26.861Z,94657.06
2019-03-15T00:44:54.578Z,94657.37
2019-03-15T00:47:20.823Z,94640.68
2019-03-15T00:49:47.146Z,94663.52
2019-03-15T00:52:14.652Z,94671.20
2019-03-15T00:54:42.893Z,94667.43
2019-03-15T00:57:08.989Z,94677.81
2019-03-15T00:59:35.234Z,94668.95
2019-03-15T01:02:01.355Z,94674.11
2019-03-15T01:04:27.989Z,94672.16
2019-03-15T01:06:54.209Z,94671.33
2019-03-15T01:09:20.370Z,94665.95
2019-03-15T01:11:46.665Z,94677.08
2019-03-15T01:14:12.932Z,94679.54
2019-03-15T01:16:39.028Z,94685.92
2019-03-15T01:19:05.261Z,94682.80
2019-03-15T01:21:31.413Z,94699.14
2019-03-15T01:23:57.647Z,94709.91
2019-03-15T01:26:24.896Z,94703.53
2019-03-15T01:28:51.279Z,94719.19
2019-03-15T01:31:17.533Z,94716.72
2019-03-15T01:33:43.798Z,94714.44
2019-03-15T01:36:10.021Z,94715.06
2019-03-15T01:38:36.196Z,94715.06
2019-03-15T01:41:02.469Z,94723.20
2019-03-15T01:43:28.744Z,94726.02
2019-03-15T01:45:54.899Z,94730.70
2019-03-15T01:48:21.072Z,94729.38
2019-03-15T01:50:47.227Z,94731.63
2019-03-15T01:53:13.351Z,94726.55
2019-03-15T01:55:40.378Z,94730.15
2019-03-15T01:58:06.630Z,94735.38
2019-03-15T02:00:33.127Z,94724.75
2019-03-15T02:03:02.150Z,94725.70
2019-03-15T02:05:27.575Z,94727.51
2019-03-15T02:07:53.763Z,94729.14
2019-03-15T02:10:22.018Z,94735.67
2019-03-15T02:12:48.206Z,94736.30
2019-03-15T02:15:14.310Z,94733.20
2019-03-15T02:17:40.670Z,94736.66
2019-03-15T02:20:07.476Z,94736.00
2019-03-15T02:22:33.723Z,94739.59
2019-03-15T02:24:59.783Z,94746.45
2019-03-15T02:27:26.008Z,94741.07
2019-03-15T02:29:52.169Z,94744.37
2019-03-15T02:32:18.549Z,94741.75
2019-03-15T02:34:44.685Z,94742.37
2019-03-15T02:37:10.928Z,94745.50
2019-03-15T02:39:37.104Z,94746.98
2019-03-15T02:42:03.257Z,94752.05
2019-03-15T02:44:31.581Z,94738.81
2019-03-15T02:46:57.800Z,94744.05
2019-03-15T02:49:23.950Z,94743.20
2019-03-15T02:51:50.250Z,94738.97
2019-03-15T02:54:16.453Z,94736.20
2019-03-15T02:56:42.870Z,94741.28
2019-03-15T02:59:09.097Z,94752.53
2019-03-15T03:01:35.936Z,94753.03
2019-03-15T03:04:02.317Z,94760.37
2019-03-15T03:06:29.007Z,94760.04
2019-03-15T03:08:55.257Z,94764.25
2019-03-15T03:11:21.629Z,94761.91
2019-03-15T03:13:47.698Z,94760.54
2019-03-15T03:16:13.939Z,94752.67
2019-03-15T03:18:40.440Z,94762.64
2019-03-15T03:21:06.633Z,94770.95
2019-03-15T03:23:32.782Z,94775.05
2019-03-15T03:25:59.012Z,94780.63
2019-03-15T03:28:25.253Z,94779.47
2019-03-15T03:30:51.488Z,94785.34
2019-03-15T03:33:17.884Z,94780.34
2019-03-15T03:35:44.100Z,94803.84
2019-03-15T03:38:10.195Z,94795.86
2019-03-15T03:40:36.602Z,94788.17
2019-03-15T03:43:02.702Z,94801.70
2019-03-15T03:45:28.962Z,94806.31
2019-03-15T03:47:56.124Z,94808.77
2019-03-15T03:50:22.348Z,94803.73
2019-03-15T03:52:48.540Z,94802.90
2019-03-15T03:55:14.764Z,94809.10
2019-03-15T03:57:41.072Z,94808.13
2019-03-15T04:00:10.547Z,94803.05
2019-03-15T04:02:36.928Z,94800.40
2019-03-15T04:05:04.264Z,94803.02
2019-03-15T04:07:30.535Z,94809.36
2019-03-15T04:09:56.711Z,94815.02
2019-03-15T04:12:22.888Z,94809.44
2019-03-15T04:14:49.121Z,94801.97
2019-03-15T04:17:15.321Z,94806.97
2019-03-15T04:19:41.703Z,94813.47
2019-03-15T04:22:08.058Z,94821.45
2019-03-15T04:24:34.334Z,94822.27
2019-03-15T04:27:00.612Z,94821.11
2019-03-15T04:29:26.893Z,94819.81
2019-03-15T04:31:53.131Z,94833.05
2019-03-15T04:34:19.389Z,94836.82
2019-03-15T04:36:45.768Z,94837.94
2019-03-15T04:39:13.922Z,94827.35
2019-03-15T04:41:40.134Z,94837.94
2019-03-15T04:44:06.311Z,94842.15
2019-03-15T04:46:32.558Z,94843.31
2019-03-15T04:48:58.772Z,94847.84
2019-03-15T04:51:24.892Z,94849.00
2019-03-15T04:53:51.105Z,94849.98
2019-03-15T04:56:17.234Z,94854.08
2019-03-15T04:58:43.477Z,94851.47
2019-03-15T05:01:09.688Z,94845.62
2019-03-15T05:03:35.985Z,94858.22
2019-03-15T05:06:03.858Z,94859.70
2019-03-15T05:08:30.293Z,94853.91
2019-03-15T05:10:56.454Z,94859.41
2019-03-15T05:13:22.678Z,94860.36
2019-03-15T05:15:48.788Z,94867.91
2019-03-15T05:18:15.007Z,94861.09
2019-03-15T05:20:41.214Z,94868.05
2019-03-15T05:23:07.362Z,94868.16
2019-03-15T05:25:33.515Z,94876.69
2019-03-15T05:27:59.655Z,94872.80
2019-03-15T05:30:25.848Z,94879.19
2019-03-15T05:32:51.986Z,94880.49
2019-03-15T05:35:18.242Z,94884.55
2019-03-15T05:37:44.573Z,94884.81
2019-03-15T05:40:11.127Z,94894.17
2019-03-15T05:42:37.291Z,94891.56
2019-03-15T05:45:07.064Z,94883.11
2019-03-15T05:47:33.206Z,94895.73
2019-03-15T05:49:59.426Z,94902.88
2019-03-15T05:52:25.632Z,94906.66
2019-03-15T05:54:51.851Z,94912.42
2019-03-15T05:57:17.968Z,94912.31
2019-03-15T05:59:44.169Z,94903.57
2019-03-15T06:02:10.381Z,94896.74
2019-03-15T06:04:36.711Z,94894.81
2019-03-15T06:07:03.045Z,94906.61
2019-03-15T06:09:29.313Z,94905.55
2019-03-15T06:11:55.477Z,94911.80
2019-03-15T06:14:21.673Z,94904.58
2019-03-15T06:16:48.002Z,94909.98
2019-03-15T06:19:14.222Z,94903.81
2019-03-15T06:21:40.375Z,94907.76
2019-03-15T06:24:06.552Z,94910.55
2019-03-15T06:26:33.735Z,94909.48
2019-03-15T06:29:01.661Z,94912.97
2019-03-15T06:31:28.060Z,94915.44
2019-03-15T06:33:54.273Z,94914.16
2019-03-15T06:36:20.409Z,94922.45
2019-03-15T06:38:46.599Z,94914.84
2019-03-15T06:41:14.473Z,94917.63
2019-03-15T06:43:40.864Z,94910.31
2019-03-15T06:46:07.016Z,94910.55
2019-03-15T06:48:33.248Z,94903.50
2019-03-15T06:50:59.365Z,94898.80
2019-03-15T06:53:25.577Z,94901.44
2019-03-15T06:55:51.717Z,94902.50
2019-03-15T06:58:17.990Z,94908.36
2019-03-15T07:00:44.233Z,94898.22
2019-03-15T07:03:10.503Z,94885.81
2019-03-15T07:05:36.672Z,94898.78
2019-03-15T07:08:02.837Z,94896.72
2019-03-15T07:10:29.008Z,94895.25
2019-03-15T07:12:55.282Z,94887.77
2019-03-15T07:15:21.432Z,94891.41
2019-03-15T07:17:47.827Z,94889.64
2019-03-15T07:20:15.348Z,94885.78
2019-03-15T07:22:41.573Z,94876.83
2019-03-15T07:25:08.707Z,94886.05
2019-03-15T07:27:34.942Z,94886.27
2019-03-15T07:30:01.150Z,94883.66
2019-03-15T07:32:27.333Z,94890.25
2019-03-15T07:34:53.583Z,94890.41
2019-03-15T07:37:19.800Z,94888.48
2019-03-15T07:39:45.967Z,94887.67
2019-03-15T07:42:12.133Z,94874.89
2019-03-15T07:44:38.287Z,94898.48
2019-03-15T07:47:04.433Z,94891.30
2019-03-15T07:49:30.774Z,94878.22
2019-03-15T07:51:57.003Z,94890.53
2019-03-15T07:54:23.176Z,94883.78
2019-03-15T07:56:49.383Z,94893.60
2019-03-15T07:59:15.555Z,94897.38
2019-03-15T08:01:41.812Z,94898.53
2019-03-15T08:04:16.796Z,94891.97
2019-03-15T08:06:36.504Z,94890.50
2019-03-15T08:09:05.060Z,94888.04
2019-03-15T08:11:31.340Z,94892.97
2019-03-15T08:13:57.642Z,94890.05
2019-03-15T08:16:23.753Z,94886.13
2019-03-15T08:18:50.128Z,94898.44
2019-03-15T08:21:16.269Z,94896.95
2019-03-15T08:23:42.485Z,94904.50
2019-03-15T08:26:09.071Z,94904.19
2019-03-15T08:28:35.386Z,94899.28
2019-03-15T08:31:01.687Z,94893.06
2019-03-15T08:33:28.259Z,94898.00
2019-03-15T08:35:54.991Z,94891.25
2019-03-15T08:38:21.212Z,94897.03
2019-03-15T08:40:47.330Z,94896.86
2019-03-15T08:43:13.536Z,94894.22
2019-03-15T08:45:39.719Z,94898.95
2019-03-15T08:48:06.050Z,94894.98
2019-03-15T08:50:32.248Z,94893.30
2019-03-15T08:52:58.415Z,94889.17
2019-03-15T08:55:24.567Z,94869.26
2019-03-15T08:57:50.874Z,94876.97
2019-03-15T09:00:18.057Z,94889.32
2019-03-15T09:02:45.412Z,94892.92
2019-03-15T09:05:12.863Z,94884.05
2019-03-15T09:07:39.422Z,94883.91
2019-03-15T09:10:21.702Z,94884.91
2019-03-15T09:12:37.096Z,94887.02
2019-03-15T09:15:04.985Z,94890.00
2019-03-15T09:17:31.264Z,94889.99
2019-03-15T09:19:57.459Z,94876.83
2019-03-15T09:22:24.146Z,94882.07
2019-03-15T09:24:50.461Z,94870.86
2019-03-15T09:27:16.577Z,94884.48
2019-03-15T09:29:42.787Z,94880.30
2019-03-15T09:32:09.417Z,94872.69
2019-03-15T09:34:35.831Z,94889.59
2019-03-15T09:37:01.942Z,94889.41
2019-03-15T09:39:28.151Z,94894.47
2019-03-15T09:41:54.340Z,94897.41
2019-03-15T09:44:20.600Z,94885.22
2019-03-15T09:46:46.886Z,94889.34
2019-03-15T09:49:13.119Z,94889.69
2019-03-15T09:51:39.386Z,94894.02
2019-03-15T09:54:05.733Z,94881.89
2019-03-15T09:56:31.921Z,94874.31
2019-03-15T09:58:58.104Z,94880.38
2019-03-15T10:01:34.887Z,94877.40
2019-03-15T10:03:52.616Z,94876.70
2019-03-15T10:06:19.639Z,94883.45
2019-03-15T10:08:47.019Z,94876.84
2019-03-15T10:11:13.160Z,94886.02
2019-03-15T10:13:39.867Z,94882.73
2019-03-15T10:16:06.087Z,94886.02
2019-03-15T10:18:32.304Z,94889.03
2019-03-15T10:20:58.456Z,94887.27
2019-03-15T10:23:24.786Z,94882.21
2019-03-15T10:25:51.460Z,94888.09
2019-03-15T10:28:17.978Z,94883.39
2019-03-15T10:30:44.518Z,94877.02
2019-03-15T10:33:10.751Z,94877.78
2019-03-15T10:35:37.386Z,94879.89
2019-03-15T10:38:05.218Z,94881.89
2019-03-15T10:40:31.973Z,94883.62
2019-03-15T10:42:58.369Z,94866.72
2019-03-15T10:45:25.238Z,94872.01
2019-03-15T10:47:51.770Z,94859.42
2019-03-15T10:50:18.728Z,94871.30
2019-03-15T10:52:45.006Z,94871.13
2019-03-15T10:55:11.542Z,94877.38
2019-03-15T10:57:37.928Z,94871.95
2019-03-15T11:00:16.064Z,94878.57
2019-03-15T11:02:42.160Z,94874.83
2019-03-15T11:05:09.062Z,94869.09
2019-03-15T11:07:35.167Z,94863.02
2019-03-15T11:10:01.745Z,94868.14
2019-03-15T11:12:28.062Z,94861.55
2019-03-15T11:14:54.380Z,94856.62
2019-03-15T11:17:20.758Z,94859.89
2019-03-15T11:19:47.149Z,94858.58
2019-03-15T11:22:13.590Z,94845.62
2019-03-15T11:24:39.817Z,94848.11
2019-03-15T11:27:06.044Z,94846.30
2019-03-15T11:29:32.245Z,94834.14
2019-03-15T11:31:58.346Z,94825.08
2019-03-15T11:34:24.572Z,94830.64
2019-03-15T11:36:58.131Z,94819.33
2019-03-15T11:39:18.915Z,94821.13
2019-03-15T11:41:45.047Z,94816.88
2019-03-15T11:44:11.270Z,94805.23
2019-03-15T11:46:37.391Z,94803.77
2019-03-15T11:49:03.626Z,94798.67
2019-03-15T11:51:29.742Z,94802.65
2019-03-15T11:53:55.990Z,94804.28
2019-03-15T11:56:26.890Z,94796.42
2019-03-15T11:58:50.247Z,94785.44
2019-03-15T12:01:16.351Z,94784.12
2019-03-15T12:03:52.597Z,94774.63
2019-03-15T12:06:10.681Z,94776.56
2019-03-15T12:08:36.935Z,94777.05
2019-03-15T12:11:03.243Z,94777.41
2019-03-15T12:13:29.485Z,94778.56
2019-03-15T12:15:55.627Z,94778.56
2019-03-15T12:18:21.865Z,94764.27
2019-03-15T12:20:49.395Z,94769.69
2019-03-15T12:23:15.890Z,94765.23
2019-03-15T12:25:42.005Z,94761.83
2019-03-15T12:28:08.232Z,94769.87
2019-03-15T12:30:35.708Z,94764.78
2019-03-15T12:33:01.865Z,94758.05
2019-03-15T12:35:28.141Z,94740.35
2019-03-15T12:37:54.637Z,94746.06
2019-03-15T12:40:21.761Z,94741.80
2019-03-15T12:42:48.701Z,94729.33
2019-03-15T12:45:15.561Z,94721.13
2019-03-15T12:47:43.000Z,94720.94
2019-03-15T12:50:13.621Z,94717.51
2019-03-15T12:52:46.980Z,94717.31
2019-03-15T12:55:10.378Z,94713.55
2019-03-15T12:57:37.589Z,94717.63
2019-03-15T13:00:07.867Z,94718.44
2019-03-15T13:02:35.508Z,94711.90
2019-03-15T13:05:01.735Z,94707.64
2019-03-15T13:07:27.945Z,94700.44
2019-03-15T13:09:54.048Z,94690.57
2019-03-15T13:12:20.263Z,94687.63
2019-03-15T13:14:47.737Z,94689.92
2019-03-15T13:17:14.030Z,94687.95
2019-03-15T13:19:40.255Z,94674.34
2019-03-15T13:22:06.381Z,94681.55
2019-03-15T13:24:32.625Z,94676.48
2019-03-15T13:27:07.387Z,94679.09
2019-03-15T13:29:26.861Z,94662.20
2019-03-15T13:31:52.984Z,94663.52
2019-03-15T13:34:19.297Z,94672.39
2019-03-15T13:36:46.415Z,94665.66
2019-03-15T13:39:12.646Z,94658.27
2019-03-15T13:41:38.745Z,94663.03
2019-03-15T13:44:05.050Z,94657.80
2019-03-15T13:46:31.227Z,94644.51
2019-03-15T13:48:57.473Z,94640.74
2019-03-15T13:51:23.627Z,94644.66
2019-03-15T13:53:49.945Z,94644.97
2019-03-15T13:56:16.129Z,94634.44
2019-03-15T13:58:42.297Z,94635.78
2019-03-15T14:01:09.021Z,94641.66
2019-03-15T14:03:36.239Z,94630.50
2019-03-15T14:06:02.555Z,94640.34
2019-03-15T14:08:28.762Z,94644.91
2019-03-15T14:10:54.977Z,94645.36
2019-03-15T14:13:21.087Z,94626.01
2019-03-15T14:15:47.390Z,94639.28
2019-03-15T14:18:14.542Z,94632.55
2019-03-15T14:20:40.773Z,94620.23
2019-03-15T14:23:06.966Z,94628.12
2019-03-15T14:25:33.404Z,94639.25
2019-03-15T14:27:59.595Z,94616.23
2019-03-15T14:30:27.003Z,94618.68
2019-03-15T14:32:53.267Z,94633.92
2019-03-15T14:35:19.485Z,94632.12
2019-03-15T14:37:45.798Z,94631.95
2019-03-15T14:40:13.433Z,94614.88
2019-03-15T14:42:39.573Z,94629.02
2019-03-15T14:45:08.392Z,94628.50
2019-03-15T14:47:34.492Z,94622.44
2019-03-15T14:50:00.719Z,94632.61
2019-03-15T14:52:26.941Z,94623.76
2019-03-15T14:54:53.205Z,94612.07
2019-03-15T14:57:19.427Z,94603.70
2019-03-15T14:59:45.554Z,94610.76
2019-03-15T15:02:11.877Z,94594.16
2019-03-15T15:04:38.130Z,94594.12
2019-03-15T15:07:04.487Z,94609.53
2019-03-15T15:09:30.698Z,94589.61
2019-03-15T15:11:56.923Z,94593.34
2019-03-15T15:14:23.081Z,94598.06
2019-03-15T15:16:49.298Z,94592.09
2019-03-15T15:19:15.473Z,94601.77
2019-03-15T15:21:41.683Z,94595.33
2019-03-15T15:24:07.950Z,94614.52
2019-03-15T15:26:34.185Z,94591.69
2019-03-15T15:29:00.374Z,94602.98
2019-03-15T15:31:27.584Z,94601.18
2019-03-15T15:33:53.691Z,94606.70
2019-03-15T15:36:19.915Z,94599.28
2019-03-15T15:38:46.039Z,94604.02
2019-03-15T15:41:12.296Z,94601.16
2019-03-15T15:43:38.460Z,94609.38
2019-03-15T15:46:04.686Z,94608.69
2019-03-15T15:48:30.844Z,94604.73
2019-03-15T15:50:57.079Z,94617.88
2019-03-15T15:53:23.275Z,94604.84
2019-03-15T15:55:49.367Z,94604.36
2019-03-15T15:58:18.145Z,94585.73
2019-03-15T16:00:43.604Z,94587.70
2019-03-15T16:03:09.816Z,94582.38
2019-03-15T16:05:36.111Z,94582.55
2019-03-15T16:08:02.345Z,94574.72
2019-03-15T16:10:28.446Z,94583.73
2019-03-15T16:12:54.657Z,94579.54
2019-03-15T16:15:20.826Z,94567.52
2019-03-15T16:17:47.060Z,94569.78
2019-03-15T16:20:13.483Z,94565.16
2019-03-15T16:22:39.632Z,94556.20
2019-03-15T16:25:07.638Z,94561.09
2019-03-15T16:27:33.784Z,94559.75
2019-03-15T16:29:59.934Z,94556.78
2019-03-15T16:32:26.093Z,94569.45
2019-03-15T16:34:52.269Z,94553.47
2019-03-15T16:37:18.517Z,94547.91
2019-03-15T16:39:44.755Z,94548.58
2019-03-15T16:42:10.874Z,94547.56
2019-03-15T16:44:37.222Z,94558.73
2019-03-15T16:47:03.537Z,94542.76
2019-03-15T16:49:29.962Z,94538.75
2019-03-15T16:51:56.221Z,94526.98
2019-03-15T16:54:22.448Z,94525.30
2019-03-15T16:56:48.720Z,94517.33
2019-03-15T16:59:14.985Z,94524.86
2019-03-15T17:01:41.238Z,94518.84
2019-03-15T17:04:07.494Z,94522.13
2019-03-15T17:06:34.624Z,94525.06
2019-03-15T17:09:00.884Z,94517.46
2019-03-15T17:11:27.108Z,94516.78
2019-03-15T17:13:53.262Z,94513.59
2019-03-15T17:16:19.807Z,94516.53
2019-03-15T17:18:46.526Z,94518.22
2019-03-15T17:21:12.893Z,94506.63
2019-03-15T17:23:39.211Z,94516.91
2019-03-15T17:26:06.021Z,94510.28
2019-03-15T17:28:32.459Z,94505.23
2019-03-15T17:31:09.142Z,94508.84
2019-03-15T17:33:27.279Z,94514.06
2019-03-15T17:35:53.429Z,94517.30
2019-03-15T17:38:19.691Z,94514.10
2019-03-15T17:40:46.093Z,94504.49
2019-03-15T17:43:12.490Z,94506.75
2019-03-15T17:45:38.700Z,94504.22
2019-03-15T17:48:05.008Z,94497.71
2019-03-15T17:50:31.434Z,94509.40
2019-03-15T17:52:57.595Z,94500.14
2019-03-15T17:55:24.323Z,94510.02
2019-03-15T17:57:52.024Z,94506.73
2019-03-15T18:00:26.146Z,94505.41
2019-03-15T18:02:53.270Z,94498.30
2019-03-15T18:05:20.209Z,94482.81
2019-03-15T18:07:46.883Z,94489.22
2019-03-15T18:10:13.868Z,94487.70
2019-03-15T18:12:40.838Z,94486.77
2019-03-15T18:15:09.084Z,94487.91
2019-03-15T18:17:35.983Z,94490.13
2019-03-15T18:20:04.223Z,94491.88
2019-03-15T18:22:31.159Z,94490.82
2019-03-15T18:24:57.751Z,94476.22
2019-03-15T18:27:24.086Z,94492.26
2019-03-15T18:29:50.369Z,94485.67
2019-03-15T18:32:16.603Z,94498.23
2019-03-15T18:34:42.873Z,94488.49
2019-03-15T18:37:09.146Z,94480.97
2019-03-15T18:39:35.275Z,94483.60
2019-03-15T18:42:01.499Z,94481.79
2019-03-15T18:44:27.688Z,94474.27
2019-03-15T18:46:54.434Z,94481.16
2019-03-15T18:49:20.939Z,94480.47
2019-03-15T18:51:47.159Z,94472.27
2019-03-15T18:54:17.653Z,94473.20
2019-03-15T18:56:41.441Z,94466.17
2019-03-15T18:59:07.668Z,94480.36
2019-03-15T19:01:34.026Z,94479.34
2019-03-15T19:04:00.165Z,94467.80
2019-03-15T19:06:26.322Z,94470.43
2019-03-15T19:08:54.085Z,94482.47
2019-03-15T19:11:20.646Z,94482.80
2019-03-15T19:13:46.814Z,94485.11
2019-03-15T19:16:19.892Z,94469.63
2019-03-15T19:18:41.154Z,94485.11
2019-03-15T19:21:08.077Z,94497.15
2019-03-15T19:23:34.431Z,94586.31
2019-03-15T19:26:00.553Z,94599.82
2019-03-15T19:28:26.964Z,94565.13
2019-03-15T19:30:53.116Z,94600.72
2019-03-15T19:33:19.353Z,94617.29
2019-03-15T19:35:45.560Z,94624.62
2019-03-15T19:38:14.725Z,94632.26
2019-03-15T19:40:39.943Z,94628.37
2019-03-15T19:43:06.096Z,94645.72
2019-03-15T19:45:32.439Z,94649.66
2019-03-15T19:47:59.370Z,94641.82
2019-03-15T19:50:25.832Z,94658.11
2019-03-15T19:52:52.131Z,94648.64
2019-03-15T19:55:18.421Z,94663.44
2019-03-15T19:57:44.869Z,94652.00
2019-03-15T20:00:14.007Z,94655.31
2019-03-15T20:02:40.226Z,94656.66
2019-03-15T20:05:07.669Z,94672.14
2019-03-15T20:07:34.055Z,94672.48
2019-03-15T20:10:00.389Z,94666.95
2019-03-15T20:12:26.689Z,94685.34
2019-03-15T20:14:52.861Z,94687.30
2019-03-15T20:17:19.138Z,94700.13
2019-03-15T20:19:45.576Z,94689.83
2019-03-15T20:22:11.729Z,94691.47
2019-03-15T20:24:37.949Z,94693.60
2019-03-15T20:27:04.207Z,94694.62
2019-03-15T20:29:30.472Z,94689.02
2019-03-15T20:31:58.347Z,94694.62
2019-03-15T20:34:25.684Z,94695.13
2019-03-15T20:36:51.945Z,94703.64
2019-03-15T20:39:18.277Z,94713.64
2019-03-15T20:41:44.759Z,94710.70
2019-03-15T20:44:11.243Z,94709.06
2019-03-15T20:46:38.594Z,94725.14
2019-03-15T20:49:04.886Z,94734.80
2019-03-15T20:51:31.062Z,94741.53
2019-03-15T20:53:57.360Z,94747.45
2019-03-15T20:56:23.553Z,94744.01
2019-03-15T20:58:49.719Z,94758.77
2019-03-15T21:01:16.024Z,94759.72
2019-03-15T21:03:55.166Z,94751.55
2019-03-15T21:06:10.292Z,94737.30
2019-03-15T21:08:36.521Z,94746.15
2019-03-15T21:11:03.050Z,94756.64
2019-03-15T21:13:33.573Z,94757.95
2019-03-15T21:15:58.498Z,94747.95
2019-03-15T21:18:24.681Z,94754.98
2019-03-15T21:20:50.926Z,94753.35
2019-03-15T21:23:17.311Z,94767.45
2019-03-15T21:25:43.636Z,94778.11
2019-03-15T21:28:09.782Z,94781.38
2019-03-15T21:30:47.925Z,94784.48
2019-03-15T21:33:05.035Z,94760.56
2019-03-15T21:35:31.334Z,94779.58
2019-03-15T21:37:57.535Z,94781.85
2019-03-15T21:40:23.756Z,94785.63
2019-03-15T21:42:49.969Z,94779.90
2019-03-15T21:45:16.246Z,94786.45
2019-03-15T21:47:42.518Z,94792.84
2019-03-15T21:50:17.415Z,94794.96
2019-03-15T21:52:43.747Z,94806.44
2019-03-15T21:55:10.546Z,94808.58
2019-03-15T21:57:36.827Z,94811.69
2019-03-15T22:00:12.198Z,94817.09
2019-03-15T22:02:39.681Z,94819.39
2019-03-15T22:05:06.952Z,94831.35
2019-03-15T22:07:34.296Z,94840.69
2019-03-15T22:10:00.539Z,94822.14
2019-03-15T22:12:26.702Z,94827.07
2019-03-15T22:14:52.854Z,94824.45
2019-03-15T22:17:18.980Z,94835.57
2019-03-15T22:19:45.142Z,94836.56
2019-03-15T22:22:11.377Z,94838.67
2019-03-15T22:24:37.628Z,94846.06
2019-03-15T22:27:03.830Z,94843.92
2019-03-15T22:29:29.960Z,94858.84
2019-03-15T22:31:56.191Z,94858.49
2019-03-15T22:34:22.352Z,94861.11
2019-03-15T22:36:48.593Z,94855.87
2019-03-15T22:39:14.820Z,94878.15
2019-03-15T22:41:40.996Z,94879.63
2019-03-15T22:44:07.231Z,94883.55
2019-03-15T22:46:33.331Z,94881.44
2019-03-15T22:48:59.563Z,94884.70
2019-03-15T22:51:25.669Z,94880.61
2019-03-15T22:53:52.009Z,94889.11
2019-03-15T22:56:18.121Z,94893.55
2019-03-15T22:58:44.328Z,94896.17
2019-03-15T23:01:10.721Z,94902.22
2019-03-15T23:03:37.072Z,94898.95
2019-03-15T23:06:03.967Z,94893.36
2019-03-15T23:08:30.248Z,94901.22
2019-03-15T23:10:56.874Z,94903.00
2019-03-15T23:13:23.093Z,94903.16
2019-03-15T23:15:49.332Z,94905.62
2019-03-15T23:18:15.526Z,94925.26
2019-03-15T23:20:41.681Z,94928.19
2019-03-15T23:23:07.836Z,94927.99
2019-03-15T23:25:34.314Z,94928.98
2019-03-15T23:28:00.458Z,94920.64
2019-03-15T23:30:26.609Z,94929.15
2019-03-15T23:32:52.758Z,94928.83
2019-03-15T23:35:18.987Z,94938.98
2019-03-15T23:37:45.204Z,94931.92
2019-03-15T23:40:12.777Z,94933.23
2019-03-15T23:42:38.933Z,94938.63
2019-03-15T23:45:07.566Z,94947.16
2019-03-15T23:47:33.655Z,94955.64
2019-03-15T23:49:59.900Z,94967.91
2019-03-15T23:52:26.051Z,94980.52
2019-03-15T23:54:52.262Z,94989.37
2019-03-15T23:57:19.508Z,94973.59
2019-03-15T23:59:45.693Z,94973.58
